createdAt,value
2023-04-03T00:01:22.465Z,2.39
2023-04-03T00:03:49.739Z,2.35
2023-04-03T00:06:17.388Z,2.35
2023-04-03T00:08:47.074Z,2.32
2023-04-03T00:11:15.335Z,2.30
2023-04-03T00:13:43.413Z,2.29
2023-04-03T00:16:11.741Z,2.27
2023-04-03T00:18:40.010Z,2.27
2023-04-03T00:21:08.517Z,2.27
2023-04-03T00:23:36.050Z,2.22
2023-04-03T00:26:03.588Z,2.22
2023-04-03T00:28:31.307Z,2.20
2023-04-03T00:30:58.660Z,2.19
2023-04-03T00:33:26.088Z,2.18
2023-04-03T00:35:54.915Z,2.17
2023-04-03T00:38:22.218Z,2.13
2023-04-03T00:40:51.059Z,2.12
2023-04-03T00:43:41.510Z,2.12
2023-04-03T00:46:09.712Z,2.11
2023-04-03T00:48:46.632Z,2.10
2023-04-03T00:51:17.458Z,2.08
2023-04-03T00:53:50.376Z,2.09
2023-04-03T00:56:20.804Z,2.08
2023-04-03T00:58:54.833Z,2.07
2023-04-03T01:01:25.878Z,2.08
2023-04-03T01:03:53.895Z,2.08
2023-04-03T01:06:27.323Z,2.08
2023-04-03T01:08:56.473Z,2.08
2023-04-03T01:11:23.790Z,2.10
2023-04-03T01:13:51.562Z,2.11
2023-04-03T01:16:20.813Z,2.11
2023-04-03T01:18:48.340Z,2.13
2023-04-03T01:21:38.182Z,2.13
2023-04-03T01:24:24.262Z,2.13
2023-04-03T01:26:51.658Z,2.11
2023-04-03T01:29:19.067Z,2.09
2023-04-03T01:31:58.686Z,2.09
2023-04-03T01:34:27.841Z,2.06
2023-04-03T01:36:56.372Z,2.06
2023-04-03T01:39:23.888Z,2.03
2023-04-03T01:41:52.046Z,2.02
2023-04-03T01:44:32.461Z,1.99
2023-04-03T01:46:59.632Z,1.96
2023-04-03T01:49:29.043Z,1.94
2023-04-03T01:51:56.958Z,1.90
2023-04-03T01:54:24.219Z,1.88
2023-04-03T01:56:51.971Z,1.87
2023-04-03T01:59:22.039Z,1.84
2023-04-03T02:01:49.297Z,1.82
2023-04-03T02:04:17.616Z,1.79
2023-04-03T02:06:45.130Z,1.76
2023-04-03T02:09:12.721Z,1.74
2023-04-03T02:11:39.999Z,1.72
2023-04-03T02:14:07.688Z,1.70
2023-04-03T02:16:35.323Z,1.69
2023-04-03T02:19:02.778Z,1.66
2023-04-03T02:21:31.239Z,1.66
2023-04-03T02:23:58.779Z,1.63
2023-04-03T02:26:26.913Z,1.60
2023-04-03T02:28:54.224Z,1.60
2023-04-03T02:31:22.141Z,1.58
2023-04-03T02:33:49.538Z,1.54
2023-04-03T02:36:17.830Z,1.53
2023-04-03T02:38:51.159Z,1.50
2023-04-03T02:41:18.948Z,1.49
2023-04-03T02:43:48.980Z,1.46
2023-04-03T02:46:19.448Z,1.43
2023-04-03T02:48:46.694Z,1.40
2023-04-03T02:51:14.333Z,1.37
2023-04-03T02:53:41.743Z,1.34
2023-04-03T02:56:14.568Z,1.31
2023-04-03T02:58:41.905Z,1.26
2023-04-03T03:01:10.518Z,1.22
2023-04-03T03:03:37.962Z,1.18
2023-04-03T03:06:08.041Z,1.17
2023-04-03T03:08:35.945Z,1.14
2023-04-03T03:11:04.066Z,1.14
2023-04-03T03:13:32.159Z,1.15
2023-04-03T03:15:59.459Z,1.14
2023-04-03T03:18:27.299Z,1.13
2023-04-03T03:20:56.725Z,1.12
2023-04-03T03:23:26.226Z,1.10
2023-04-03T03:26:03.155Z,1.08
2023-04-03T03:28:30.680Z,1.07
2023-04-03T03:31:01.575Z,1.04
2023-04-03T03:33:30.039Z,1.04
2023-04-03T03:35:57.349Z,1.02
2023-04-03T03:38:25.285Z,0.99
2023-04-03T03:40:53.727Z,0.99
2023-04-03T03:43:22.501Z,0.97
2023-04-03T03:45:53.420Z,0.94
2023-04-03T03:48:22.008Z,0.92
2023-04-03T03:50:50.767Z,0.91
2023-04-03T03:53:20.351Z,0.91
2023-04-03T03:55:49.043Z,0.89
2023-04-03T03:58:17.501Z,0.87
2023-04-03T04:00:44.783Z,0.86
2023-04-03T04:03:12.310Z,0.83
2023-04-03T04:05:40.507Z,0.81
2023-04-03T04:08:08.254Z,0.80
2023-04-03T04:10:38.501Z,0.79
2023-04-03T04:13:06.897Z,0.78
2023-04-03T04:15:35.607Z,0.77
2023-04-03T04:18:03.818Z,0.77
2023-04-03T04:20:32.956Z,0.78
2023-04-03T04:23:00.510Z,0.76
2023-04-03T04:25:28.579Z,0.78
2023-04-03T04:27:55.985Z,0.76
2023-04-03T04:30:23.314Z,0.76
2023-04-03T04:32:51.774Z,0.75
2023-04-03T04:35:19.440Z,0.75
2023-04-03T04:37:49.674Z,0.76
2023-04-03T04:40:17.734Z,0.74
2023-04-03T04:42:45.664Z,0.74
2023-04-03T04:45:13.581Z,0.74
2023-04-03T04:47:43.721Z,0.73
2023-04-03T04:50:12.600Z,0.74
2023-04-03T04:52:40.624Z,0.74
2023-04-03T04:55:09.473Z,0.75
2023-04-03T04:57:38.077Z,0.75
2023-04-03T05:00:07.945Z,0.74
2023-04-03T05:02:36.019Z,0.73
2023-04-03T05:05:05.748Z,0.73
2023-04-03T05:07:36.733Z,0.75
2023-04-03T05:10:05.046Z,0.75
2023-04-03T05:12:33.658Z,0.75
2023-04-03T05:15:04.247Z,0.76
2023-04-03T05:17:33.016Z,0.76
2023-04-03T05:20:01.265Z,0.78
2023-04-03T05:22:29.631Z,0.76
2023-04-03T05:25:03.598Z,0.79
2023-04-03T05:27:31.031Z,0.80
2023-04-03T05:30:00.390Z,0.81
2023-04-03T05:32:28.888Z,0.82
2023-04-03T05:35:23.629Z,0.83
2023-04-03T05:37:54.497Z,0.85
2023-04-03T05:40:22.676Z,0.86
2023-04-03T05:42:54.518Z,0.88
2023-04-03T05:45:25.375Z,0.89
2023-04-03T05:47:55.876Z,0.94
2023-04-03T05:50:24.552Z,0.95
2023-04-03T05:52:57.653Z,0.98
2023-04-03T05:55:26.796Z,1.00
2023-04-03T05:57:54.986Z,1.06
2023-04-03T06:00:23.630Z,1.09
2023-04-03T06:03:00.630Z,1.12
2023-04-03T06:05:28.058Z,1.14
2023-04-03T06:07:58.019Z,1.18
2023-04-03T06:10:25.621Z,1.20
2023-04-03T06:12:53.011Z,1.24
2023-04-03T06:15:21.388Z,1.27
2023-04-03T06:17:49.377Z,1.32
2023-04-03T06:20:18.545Z,1.36
2023-04-03T06:22:46.927Z,1.39
2023-04-03T06:25:18.561Z,1.43
2023-04-03T06:27:46.436Z,1.48
2023-04-03T06:30:14.808Z,1.54
2023-04-03T06:32:42.457Z,1.59
2023-04-03T06:35:11.036Z,1.64
2023-04-03T06:37:38.721Z,1.70
2023-04-03T06:40:06.799Z,1.74
2023-04-03T06:42:34.097Z,1.83
2023-04-03T06:45:10.852Z,2.17
2023-04-03T06:47:38.328Z,2.55
2023-04-03T06:50:07.602Z,2.84
2023-04-03T06:52:34.954Z,3.29
2023-04-03T06:55:02.353Z,3.61
2023-04-03T06:57:29.985Z,3.79
2023-04-03T07:00:00.943Z,3.92
2023-04-03T07:02:28.334Z,3.97
2023-04-03T07:04:56.470Z,4.13
2023-04-03T07:07:24.193Z,4.34
2023-04-03T07:09:52.279Z,4.42
2023-04-03T07:12:20.715Z,4.42
2023-04-03T07:14:48.030Z,4.47
2023-04-03T07:17:15.568Z,4.52
2023-04-03T07:19:43.016Z,4.60
2023-04-03T07:22:12.043Z,4.82
2023-04-03T07:24:41.244Z,5.20
2023-04-03T07:27:10.028Z,5.45
2023-04-03T07:29:37.431Z,5.56
2023-04-03T07:32:06.765Z,5.62
2023-04-03T07:34:34.119Z,5.85
2023-04-03T07:37:02.472Z,6.00
2023-04-03T07:39:30.578Z,6.08
2023-04-03T07:41:58.080Z,6.31
2023-04-03T07:44:26.079Z,6.45
2023-04-03T07:46:53.583Z,6.60
2023-04-03T07:49:21.172Z,6.88
2023-04-03T07:51:49.585Z,7.10
2023-04-03T07:54:17.082Z,7.04
2023-04-03T07:56:44.974Z,6.95
2023-04-03T07:59:13.473Z,6.91
2023-04-03T08:01:41.270Z,7.01
2023-04-03T08:04:08.737Z,7.10
2023-04-03T08:06:46.557Z,7.26
2023-04-03T08:09:18.367Z,7.32
2023-04-03T08:11:46.514Z,7.40
2023-04-03T08:14:19.604Z,7.54
2023-04-03T08:16:48.809Z,7.62
2023-04-03T08:19:26.131Z,7.61
2023-04-03T08:21:55.734Z,7.48
2023-04-03T08:24:23.478Z,7.30
2023-04-03T08:26:51.116Z,7.39
2023-04-03T08:29:19.017Z,7.54
2023-04-03T08:31:46.482Z,7.67
2023-04-03T08:34:14.584Z,7.95
2023-04-03T08:36:42.314Z,8.26
2023-04-03T08:39:13.326Z,8.32
2023-04-03T08:41:47.405Z,8.29
2023-04-03T08:44:27.152Z,8.43
2023-04-03T08:47:05.519Z,8.56
2023-04-03T08:49:52.627Z,8.69
2023-04-03T08:52:28.780Z,8.81
2023-04-03T08:55:02.678Z,8.58
2023-04-03T08:57:36.834Z,8.65
2023-04-03T09:00:19.050Z,8.64
2023-04-03T09:02:55.533Z,8.68
2023-04-03T09:05:50.240Z,8.75
2023-04-03T09:08:23.947Z,8.83
2023-04-03T09:11:00.336Z,8.84
2023-04-03T09:13:49.802Z,8.67
2023-04-03T09:16:43.626Z,8.60
2023-04-03T09:19:33.972Z,8.47
2023-04-03T09:22:13.760Z,8.44
2023-04-03T09:24:42.940Z,8.46
2023-04-03T09:27:13.337Z,8.50
2023-04-03T09:29:48.964Z,8.52
2023-04-03T09:32:31.005Z,8.49
2023-04-03T09:35:21.844Z,8.45
2023-04-03T09:38:03.230Z,8.44
2023-04-03T09:40:41.102Z,8.03
2023-04-03T09:43:29.969Z,7.76
2023-04-03T09:46:36.346Z,7.41
2023-04-03T09:49:09.771Z,7.39
2023-04-03T09:51:38.391Z,7.47
2023-04-03T09:54:40.721Z,7.49
2023-04-03T09:57:13.036Z,7.47
2023-04-03T09:59:45.914Z,7.47
2023-04-03T10:02:25.302Z,7.39
2023-04-03T10:05:02.461Z,7.26
2023-04-03T10:07:40.212Z,7.27
2023-04-03T10:10:28.243Z,7.28
2023-04-03T10:13:20.182Z,7.18
2023-04-03T10:16:00.300Z,6.97
2023-04-03T10:18:49.746Z,6.86
2023-04-03T10:21:27.771Z,6.75
2023-04-03T10:24:24.161Z,6.70
2023-04-03T10:27:18.860Z,6.69
2023-04-03T10:30:19.169Z,6.65
2023-04-03T10:32:50.695Z,6.57
2023-04-03T10:35:49.152Z,6.60
2023-04-03T10:38:54.023Z,6.83
2023-04-03T10:41:30.404Z,6.95
2023-04-03T10:44:32.643Z,7.05
2023-04-03T10:47:13.658Z,7.16
2023-04-03T10:50:19.748Z,7.11
2023-04-03T10:53:17.817Z,7.21
2023-04-03T10:56:09.613Z,7.17
2023-04-03T10:58:46.986Z,7.27
2023-04-03T11:01:21.489Z,7.38
2023-04-03T11:03:54.345Z,7.29
2023-04-03T11:06:26.014Z,7.27
2023-04-03T11:09:22.689Z,7.27
2023-04-03T11:11:54.530Z,7.30
2023-04-03T11:14:29.855Z,7.44
2023-04-03T11:17:06.468Z,7.63
2023-04-03T11:19:44.961Z,7.73
2023-04-03T11:22:42.404Z,7.74
2023-04-03T11:25:13.019Z,7.84
2023-04-03T11:27:47.194Z,7.98
2023-04-03T11:30:34.976Z,8.10
2023-04-03T11:33:30.611Z,8.24
2023-04-03T11:36:26.852Z,8.35
2023-04-03T11:39:11.131Z,8.40
2023-04-03T11:41:39.295Z,8.47
2023-04-03T11:44:46.030Z,8.41
2023-04-03T11:47:47.161Z,8.26
2023-04-03T11:50:34.787Z,8.32
2023-04-03T11:53:06.672Z,8.44
2023-04-03T11:55:34.077Z,8.53
2023-04-03T11:58:02.538Z,8.61
2023-04-03T12:00:45.631Z,8.69
2023-04-03T12:03:33.006Z,8.70
2023-04-03T12:06:11.561Z,8.72
2023-04-03T12:08:42.746Z,8.76
2023-04-03T12:11:10.334Z,8.78
2023-04-03T12:13:40.168Z,8.72
2023-04-03T12:16:26.734Z,8.76
2023-04-03T12:19:22.233Z,8.75
2023-04-03T12:22:08.975Z,8.71
2023-04-03T12:24:44.151Z,8.68
2023-04-03T12:27:20.108Z,8.61
2023-04-03T12:29:54.722Z,8.66
2023-04-03T12:32:41.518Z,8.73
2023-04-03T12:35:38.498Z,8.66
2023-04-03T12:38:26.453Z,8.64
2023-04-03T12:41:05.915Z,8.64
2023-04-03T12:43:42.934Z,8.63
2023-04-03T12:46:11.051Z,8.63
2023-04-03T12:49:02.679Z,8.65
2023-04-03T12:51:43.482Z,8.61
2023-04-03T12:54:17.490Z,8.58
2023-04-03T12:56:44.951Z,8.58
2023-04-03T12:59:19.929Z,8.55
2023-04-03T13:02:00.598Z,8.53
2023-04-03T13:04:29.368Z,8.57
2023-04-03T13:06:56.935Z,8.61
2023-04-03T13:09:28.890Z,8.64
2023-04-03T13:12:11.443Z,8.65
2023-04-03T13:14:39.846Z,8.70
2023-04-03T13:17:15.036Z,8.76
2023-04-03T13:19:49.323Z,8.78
2023-04-03T13:22:35.296Z,8.77
2023-04-03T13:25:07.921Z,8.76
2023-04-03T13:27:41.008Z,8.73
2023-04-03T13:30:20.952Z,8.73
2023-04-03T13:32:48.544Z,8.74
2023-04-03T13:35:45.796Z,8.71
2023-04-03T13:38:20.869Z,8.68
2023-04-03T13:40:58.339Z,8.60
2023-04-03T13:43:27.040Z,8.61
2023-04-03T13:46:19.467Z,8.68
2023-04-03T13:48:52.736Z,8.72
2023-04-03T13:51:27.318Z,8.82
2023-04-03T13:54:19.049Z,8.90
2023-04-03T13:56:50.210Z,8.90
2023-04-03T13:59:36.410Z,8.85
2023-04-03T14:02:07.152Z,8.91
2023-04-03T14:04:47.450Z,8.94
2023-04-03T14:07:22.500Z,8.98
2023-04-03T14:09:50.168Z,9.00
2023-04-03T14:12:40.243Z,8.98
2023-04-03T14:15:21.659Z,8.95
2023-04-03T14:17:49.505Z,8.93
2023-04-03T14:20:18.811Z,8.97
2023-04-03T14:22:49.979Z,9.02
2023-04-03T14:25:17.902Z,9.02
2023-04-03T14:27:49.130Z,9.01
2023-04-03T14:30:36.612Z,8.86
2023-04-03T14:33:04.393Z,8.81
2023-04-03T14:35:31.869Z,8.81
2023-04-03T14:38:02.680Z,8.83
2023-04-03T14:40:36.474Z,8.85
2023-04-03T14:43:04.360Z,8.75
2023-04-03T14:45:31.625Z,8.66
2023-04-03T14:48:00.481Z,8.59
2023-04-03T14:50:28.708Z,8.55
2023-04-03T14:52:59.639Z,8.54
2023-04-03T14:55:34.846Z,8.46
2023-04-03T14:58:03.530Z,8.33
2023-04-03T15:00:31.149Z,8.25
2023-04-03T15:02:59.603Z,8.20
2023-04-03T15:05:27.557Z,8.11
2023-04-03T15:07:57.415Z,8.06
2023-04-03T15:10:30.639Z,8.09
2023-04-03T15:12:58.802Z,8.04
2023-04-03T15:15:30.777Z,7.99
2023-04-03T15:18:01.247Z,7.91
2023-04-03T15:20:34.822Z,7.85
2023-04-03T15:23:11.046Z,7.83
2023-04-03T15:25:40.599Z,7.81
2023-04-03T15:28:28.909Z,7.84
2023-04-03T15:30:58.456Z,7.84
2023-04-03T15:33:26.978Z,7.79
2023-04-03T15:36:02.678Z,7.66
2023-04-03T15:38:36.284Z,7.63
2023-04-03T15:41:04.021Z,7.69
2023-04-03T15:43:31.937Z,7.66
2023-04-03T15:46:01.671Z,7.66
2023-04-03T15:48:29.937Z,7.66
2023-04-03T15:50:59.327Z,7.65
2023-04-03T15:53:27.959Z,7.66
2023-04-03T15:55:55.298Z,7.61
2023-04-03T15:58:22.755Z,7.55
2023-04-03T16:00:50.306Z,7.50
2023-04-03T16:03:20.691Z,7.47
2023-04-03T16:05:49.136Z,7.46
2023-04-03T16:08:18.830Z,7.44
2023-04-03T16:10:48.159Z,7.40
2023-04-03T16:13:16.281Z,7.37
2023-04-03T16:15:44.781Z,7.32
2023-04-03T16:18:14.930Z,7.30
2023-04-03T16:20:42.412Z,7.21
2023-04-03T16:23:09.998Z,7.16
2023-04-03T16:25:37.638Z,7.13
2023-04-03T16:28:05.703Z,7.06
2023-04-03T16:30:34.029Z,7.00
2023-04-03T16:33:01.472Z,6.94
2023-04-03T16:35:29.142Z,6.94
2023-04-03T16:37:57.298Z,6.91
2023-04-03T16:40:24.760Z,6.87
2023-04-03T16:42:53.021Z,6.85
2023-04-03T16:45:21.595Z,6.79
2023-04-03T16:47:49.326Z,6.73
2023-04-03T16:50:16.800Z,6.67
2023-04-03T16:52:47.235Z,6.64
2023-04-03T16:55:14.635Z,6.59
2023-04-03T16:57:42.326Z,6.56
2023-04-03T17:00:10.489Z,6.56
2023-04-03T17:02:38.276Z,6.54
2023-04-03T17:05:06.380Z,6.50
2023-04-03T17:07:34.233Z,6.44
2023-04-03T17:10:02.012Z,6.40
2023-04-03T17:12:29.826Z,6.35
2023-04-03T17:15:04.484Z,6.31
2023-04-03T17:17:32.662Z,6.26
2023-04-03T17:20:00.146Z,6.22
2023-04-03T17:22:29.688Z,6.18
2023-04-03T17:24:57.946Z,6.15
2023-04-03T17:27:25.861Z,6.10
2023-04-03T17:29:56.067Z,6.05
2023-04-03T17:32:27.571Z,5.98
2023-04-03T17:34:55.518Z,5.95
2023-04-03T17:37:23.106Z,5.89
2023-04-03T17:39:51.494Z,5.86
2023-04-03T17:42:18.851Z,5.81
2023-04-03T17:44:46.864Z,5.76
2023-04-03T17:47:14.106Z,5.70
2023-04-03T17:49:41.859Z,5.68
2023-04-03T17:52:12.216Z,5.64
2023-04-03T17:54:41.694Z,5.60
2023-04-03T17:57:09.277Z,5.55
2023-04-03T17:59:37.042Z,5.52
2023-04-03T18:02:04.767Z,5.50
2023-04-03T18:04:33.456Z,5.43
2023-04-03T18:07:02.780Z,5.39
2023-04-03T18:09:34.005Z,5.35
2023-04-03T18:12:04.796Z,5.30
2023-04-03T18:14:33.011Z,5.24
2023-04-03T18:17:01.077Z,5.19
2023-04-03T18:19:30.096Z,5.15
2023-04-03T18:22:01.448Z,5.10
2023-04-03T18:24:31.982Z,5.03
2023-04-03T18:27:11.725Z,4.99
2023-04-03T18:29:43.061Z,4.97
2023-04-03T18:32:13.395Z,4.94
2023-04-03T18:34:41.209Z,4.90
2023-04-03T18:37:08.606Z,4.87
2023-04-03T18:39:36.242Z,4.83
2023-04-03T18:42:09.380Z,4.80
2023-04-03T18:44:38.127Z,4.80
2023-04-03T18:47:05.657Z,4.76
2023-04-03T18:49:34.652Z,4.76
2023-04-03T18:52:02.614Z,4.72
2023-04-03T18:54:30.060Z,4.68
2023-04-03T18:56:57.949Z,4.66
2023-04-03T18:59:25.655Z,4.64
2023-04-03T19:01:54.911Z,4.62
2023-04-03T19:04:22.350Z,4.58
2023-04-03T19:06:49.726Z,4.56
2023-04-03T19:09:17.443Z,4.55
2023-04-03T19:12:23.202Z,4.53
2023-04-03T19:14:50.608Z,4.49
2023-04-03T19:17:17.822Z,4.48
2023-04-03T19:19:45.528Z,4.45
2023-04-03T19:22:12.864Z,4.43
2023-04-03T19:24:40.131Z,4.41
2023-04-03T19:27:07.625Z,4.38
2023-04-03T19:29:35.004Z,4.37
2023-04-03T19:32:02.380Z,4.34
2023-04-03T19:34:29.610Z,4.35
2023-04-03T19:36:56.853Z,4.33
2023-04-03T19:39:24.211Z,4.29
2023-04-03T19:41:51.818Z,4.29
2023-04-03T19:44:19.072Z,4.29
2023-04-03T19:46:51.519Z,4.28
2023-04-03T19:49:20.038Z,4.27
2023-04-03T19:51:47.389Z,4.26
2023-04-03T19:54:14.686Z,4.24
2023-04-03T19:56:43.487Z,4.23
2023-04-03T19:59:10.810Z,4.20
2023-04-03T20:01:39.012Z,4.19
2023-04-03T20:04:06.424Z,4.17
2023-04-03T20:06:34.004Z,4.17
2023-04-03T20:09:01.876Z,4.16
2023-04-03T20:11:29.334Z,4.15
2023-04-03T20:13:57.224Z,4.14
2023-04-03T20:16:26.058Z,4.11
2023-04-03T20:18:56.229Z,4.10
2023-04-03T20:21:32.384Z,4.07
2023-04-03T20:24:01.265Z,4.06
2023-04-03T20:26:31.676Z,4.06
2023-04-03T20:29:01.544Z,4.04
2023-04-03T20:31:30.646Z,4.03
2023-04-03T20:33:57.969Z,4.02
2023-04-03T20:36:28.373Z,4.00
2023-04-03T20:38:56.272Z,4.00
2023-04-03T20:41:23.835Z,4.00
2023-04-03T20:43:51.334Z,3.99
2023-04-03T20:46:23.280Z,3.98
2023-04-03T20:48:50.806Z,3.98
2023-04-03T20:51:19.578Z,3.96
2023-04-03T20:53:49.264Z,3.94
2023-04-03T20:56:18.585Z,3.91
2023-04-03T20:58:49.781Z,3.91
2023-04-03T21:01:21.489Z,3.89
2023-04-03T21:03:50.978Z,3.87
2023-04-03T21:06:57.094Z,3.84
2023-04-03T21:10:02.068Z,3.81
2023-04-03T21:13:08.146Z,3.79
2023-04-03T21:15:57.313Z,3.78
2023-04-03T21:18:43.799Z,3.78
2023-04-03T21:21:19.691Z,3.77
2023-04-03T21:23:49.797Z,3.74
2023-04-03T21:26:17.921Z,3.72
2023-04-03T21:28:45.727Z,3.70
2023-04-03T21:31:15.484Z,3.67
2023-04-03T21:33:43.048Z,3.66
2023-04-03T21:36:10.674Z,3.65
2023-04-03T21:38:38.187Z,3.63
2023-04-03T21:41:05.536Z,3.60
2023-04-03T21:43:33.345Z,3.58
2023-04-03T21:46:00.644Z,3.56
2023-04-03T21:48:31.520Z,3.54
2023-04-03T21:51:02.811Z,3.53
2023-04-03T21:53:31.445Z,3.51
2023-04-03T21:56:00.304Z,3.45
2023-04-03T21:58:30.561Z,3.42
2023-04-03T22:01:07.856Z,3.39
2023-04-03T22:03:35.094Z,3.38
2023-04-03T22:06:02.485Z,3.36
2023-04-03T22:08:29.888Z,3.34
2023-04-03T22:11:02.455Z,3.31
2023-04-03T22:13:31.575Z,3.29
2023-04-03T22:15:59.572Z,3.29
2023-04-03T22:18:27.532Z,3.28
2023-04-03T22:20:56.113Z,3.28
2023-04-03T22:23:23.651Z,3.26
2023-04-03T22:25:59.403Z,3.24
2023-04-03T22:28:27.941Z,3.25
2023-04-03T22:30:56.457Z,3.24
2023-04-03T22:33:24.178Z,3.21
2023-04-03T22:35:51.818Z,3.19
2023-04-03T22:38:19.213Z,3.19
2023-04-03T22:40:48.142Z,3.18
2023-04-03T22:43:17.467Z,3.17
2023-04-03T22:45:49.214Z,3.20
2023-04-03T22:48:18.285Z,3.22
2023-04-03T22:50:46.997Z,3.22
2023-04-03T22:53:16.656Z,3.21
2023-04-03T22:55:44.559Z,3.23
2023-04-03T22:58:11.873Z,3.24
2023-04-03T23:00:39.391Z,3.25
2023-04-03T23:03:07.084Z,3.23
2023-04-03T23:05:34.537Z,3.23
2023-04-03T23:08:02.102Z,3.24
2023-04-03T23:10:31.737Z,3.24
2023-04-03T23:12:59.572Z,3.25
2023-04-03T23:15:27.540Z,3.23
2023-04-03T23:17:55.170Z,3.24
2023-04-03T23:20:22.564Z,3.23
2023-04-03T23:22:49.802Z,3.22
2023-04-03T23:25:19.218Z,3.21
2023-04-03T23:27:53.696Z,3.20
2023-04-03T23:30:21.660Z,3.17
2023-04-03T23:32:49.124Z,3.13
2023-04-03T23:35:16.725Z,3.10
2023-04-03T23:37:44.100Z,3.09
2023-04-03T23:40:11.919Z,3.04
2023-04-03T23:42:39.151Z,3.00
2023-04-03T23:45:08.058Z,3.00
2023-04-03T23:47:36.754Z,2.99
2023-04-03T23:50:04.260Z,2.96
2023-04-03T23:52:31.533Z,2.96
2023-04-03T23:54:58.760Z,2.94
2023-04-03T23:57:25.971Z,2.91
2023-04-03T23:59:53.259Z,2.91
